sensor_id;sensor_type;location;lat;lon;timestamp;temperature;humidity
47382;DHT22;33128;51.580;5.170;2022-12-07T00:03:31;6.20;99.90
47382;DHT22;33128;51.580;5.170;2022-12-07T00:05:58;6.10;99.90
47382;DHT22;33128;51.580;5.170;2022-12-07T00:08:23;6.10;99.90
47382;DHT22;33128;51.580;5.170;2022-12-07T00:10:49;6.10;99.90
47382;DHT22;33128;51.580;5.170;2022-12-07T00:13:15;6.00;99.90
47382;DHT22;33128;51.580;5.170;2022-12-07T00:15:40;6.00;99.90
47382;DHT22;33128;51.580;5.170;2022-12-07T00:18:06;5.90;99.90
47382;DHT22;33128;51.580;5.170;2022-12-07T00:20:31;6.00;99.90
47382;DHT22;33128;51.580;5.170;2022-12-07T00:22:58;5.90;99.90
47382;DHT22;33128;51.580;5.170;2022-12-07T00:25:24;5.90;99.90
47382;DHT22;33128;51.580;5.170;2022-12-07T00:27:49;5.90;99.90
47382;DHT22;33128;51.580;5.170;2022-12-07T00:30:15;5.90;99.90
47382;DHT22;33128;51.580;5.170;2022-12-07T00:32:44;5.90;99.90
47382;DHT22;33128;51.580;5.170;2022-12-07T00:35:09;5.80;99.90
47382;DHT22;33128;51.580;5.170;2022-12-07T00:37:35;5.70;99.90
47382;DHT22;33128;51.580;5.170;2022-12-07T00:40:00;5.70;99.90
47382;DHT22;33128;51.580;5.170;2022-12-07T00:42:26;5.70;99.90
47382;DHT22;33128;51.580;5.170;2022-12-07T00:44:51;5.70;99.90
47382;DHT22;33128;51.580;5.170;2022-12-07T00:47:17;5.70;99.90
47382;DHT22;33128;51.580;5.170;2022-12-07T00:49:42;5.70;99.90
47382;DHT22;33128;51.580;5.170;2022-12-07T00:52:08;5.70;99.90
47382;DHT22;33128;51.580;5.170;2022-12-07T00:54:33;5.70;99.90
47382;DHT22;33128;51.580;5.170;2022-12-07T00:56:59;5.70;99.90
47382;DHT22;33128;51.580;5.170;2022-12-07T00:59:25;5.70;99.90
47382;DHT22;33128;51.580;5.170;2022-12-07T01:01:50;5.70;99.90
47382;DHT22;33128;51.580;5.170;2022-12-07T01:04:16;5.70;99.90
47382;DHT22;33128;51.580;5.170;2022-12-07T01:06:41;5.70;99.90
47382;DHT22;33128;51.580;5.170;2022-12-07T01:09:07;5.70;99.90
47382;DHT22;33128;51.580;5.170;2022-12-07T01:11:33;5.70;99.90
47382;DHT22;33128;51.580;5.170;2022-12-07T01:14:00;5.80;99.90
47382;DHT22;33128;51.580;5.170;2022-12-07T01:16:28;5.80;99.90
47382;DHT22;33128;51.580;5.170;2022-12-07T01:18:55;5.80;99.90
47382;DHT22;33128;51.580;5.170;2022-12-07T01:21:24;5.80;99.90
47382;DHT22;33128;51.580;5.170;2022-12-07T01:23:50;5.70;99.90
47382;DHT22;33128;51.580;5.170;2022-12-07T01:26:23;5.80;99.90
47382;DHT22;33128;51.580;5.170;2022-12-07T01:28:49;5.80;99.90
47382;DHT22;33128;51.580;5.170;2022-12-07T01:31:21;5.80;99.90
47382;DHT22;33128;51.580;5.170;2022-12-07T01:33:50;6.40;99.90
47382;DHT22;33128;51.580;5.170;2022-12-07T01:36:24;6.90;99.90
47382;DHT22;33128;51.580;5.170;2022-12-07T01:38:53;7.20;99.90
47382;DHT22;33128;51.580;5.170;2022-12-07T01:41:22;7.30;99.90
47382;DHT22;33128;51.580;5.170;2022-12-07T01:44:15;7.20;99.90
47382;DHT22;33128;51.580;5.170;2022-12-07T01:46:46;7.30;99.90
47382;DHT22;33128;51.580;5.170;2022-12-07T01:49:20;7.30;99.90
47382;DHT22;33128;51.580;5.170;2022-12-07T01:51:48;7.40;99.90
47382;DHT22;33128;51.580;5.170;2022-12-07T01:54:15;7.60;99.90
47382;DHT22;33128;51.580;5.170;2022-12-07T01:56:44;7.60;99.90
47382;DHT22;33128;51.580;5.170;2022-12-07T01:59:12;7.70;99.90
47382;DHT22;33128;51.580;5.170;2022-12-07T02:01:38;7.70;99.90
47382;DHT22;33128;51.580;5.170;2022-12-07T02:04:05;7.40;99.90
47382;DHT22;33128;51.580;5.170;2022-12-07T02:06:31;7.30;99.90
47382;DHT22;33128;51.580;5.170;2022-12-07T02:08:57;7.30;99.90
47382;DHT22;33128;51.580;5.170;2022-12-07T02:11:22;7.40;99.90
47382;DHT22;33128;51.580;5.170;2022-12-07T02:13:48;7.60;99.90
47382;DHT22;33128;51.580;5.170;2022-12-07T02:29:24;7.30;99.90
47382;DHT22;33128;51.580;5.170;2022-12-07T02:34:27;7.10;99.90
47382;DHT22;33128;51.580;5.170;2022-12-07T02:36:57;7.10;99.90
47382;DHT22;33128;51.580;5.170;2022-12-07T02:39:44;7.20;99.90
47382;DHT22;33128;51.580;5.170;2022-12-07T02:42:18;7.20;99.90
47382;DHT22;33128;51.580;5.170;2022-12-07T02:44:46;7.20;99.90
47382;DHT22;33128;51.580;5.170;2022-12-07T02:47:15;7.40;99.90
47382;DHT22;33128;51.580;5.170;2022-12-07T02:49:42;7.50;99.90
47382;DHT22;33128;51.580;5.170;2022-12-07T02:52:08;7.60;99.90
47382;DHT22;33128;51.580;5.170;2022-12-07T02:54:33;7.50;99.90
47382;DHT22;33128;51.580;5.170;2022-12-07T02:57:14;7.50;99.90
47382;DHT22;33128;51.580;5.170;2022-12-07T02:59:47;7.30;99.90
47382;DHT22;33128;51.580;5.170;2022-12-07T03:04:56;7.40;99.90
47382;DHT22;33128;51.580;5.170;2022-12-07T03:08:13;7.40;99.90
47382;DHT22;33128;51.580;5.170;2022-12-07T03:10:16;7.50;99.90
47382;DHT22;33128;51.580;5.170;2022-12-07T03:13:07;7.50;99.90
47382;DHT22;33128;51.580;5.170;2022-12-07T03:18:22;7.40;99.90
47382;DHT22;33128;51.580;5.170;2022-12-07T03:20:52;7.70;99.90
47382;DHT22;33128;51.580;5.170;2022-12-07T03:23:19;7.60;99.90
47382;DHT22;33128;51.580;5.170;2022-12-07T03:25:49;7.60;99.90
47382;DHT22;33128;51.580;5.170;2022-12-07T03:28:19;7.60;99.90
47382;DHT22;33128;51.580;5.170;2022-12-07T03:30:56;7.80;99.90
47382;DHT22;33128;51.580;5.170;2022-12-07T03:36:30;7.90;99.90
47382;DHT22;33128;51.580;5.170;2022-12-07T03:39:17;7.90;99.90
47382;DHT22;33128;51.580;5.170;2022-12-07T03:41:48;7.80;99.90
47382;DHT22;33128;51.580;5.170;2022-12-07T03:44:15;7.40;99.90
47382;DHT22;33128;51.580;5.170;2022-12-07T03:49:28;7.10;99.90
47382;DHT22;33128;51.580;5.170;2022-12-07T03:52:24;7.20;99.90
47382;DHT22;33128;51.580;5.170;2022-12-07T03:55:02;7.20;99.90
47382;DHT22;33128;51.580;5.170;2022-12-07T03:57:31;6.90;99.90
47382;DHT22;33128;51.580;5.170;2022-12-07T03:59:58;6.80;99.90
47382;DHT22;33128;51.580;5.170;2022-12-07T04:02:27;7.10;99.90
47382;DHT22;33128;51.580;5.170;2022-12-07T04:04:54;7.30;99.90
47382;DHT22;33128;51.580;5.170;2022-12-07T04:07:23;7.10;99.90
47382;DHT22;33128;51.580;5.170;2022-12-07T04:09:48;7.30;99.90
47382;DHT22;33128;51.580;5.170;2022-12-07T04:12:14;7.40;99.90
47382;DHT22;33128;51.580;5.170;2022-12-07T04:14:40;7.30;99.90
47382;DHT22;33128;51.580;5.170;2022-12-07T04:17:05;7.60;99.90
47382;DHT22;33128;51.580;5.170;2022-12-07T04:19:33;7.50;99.90
47382;DHT22;33128;51.580;5.170;2022-12-07T04:22:00;7.00;99.90
47382;DHT22;33128;51.580;5.170;2022-12-07T04:24:27;7.00;99.90
47382;DHT22;33128;51.580;5.170;2022-12-07T04:26:53;6.90;99.90
47382;DHT22;33128;51.580;5.170;2022-12-07T04:29:24;7.00;99.90
47382;DHT22;33128;51.580;5.170;2022-12-07T04:31:50;7.10;99.90
47382;DHT22;33128;51.580;5.170;2022-12-07T04:34:17;7.30;99.90
47382;DHT22;33128;51.580;5.170;2022-12-07T04:36:44;7.60;99.90
47382;DHT22;33128;51.580;5.170;2022-12-07T04:39:23;7.80;99.90
47382;DHT22;33128;51.580;5.170;2022-12-07T04:42:00;7.10;99.90
47382;DHT22;33128;51.580;5.170;2022-12-07T04:44:29;7.10;99.90
47382;DHT22;33128;51.580;5.170;2022-12-07T04:46:58;7.00;99.90
47382;DHT22;33128;51.580;5.170;2022-12-07T04:49:24;7.20;99.90
47382;DHT22;33128;51.580;5.170;2022-12-07T04:51:59;7.40;99.90
47382;DHT22;33128;51.580;5.170;2022-12-07T04:54:24;7.40;99.90
47382;DHT22;33128;51.580;5.170;2022-12-07T04:57:11;7.50;99.90
47382;DHT22;33128;51.580;5.170;2022-12-07T04:59:42;7.20;99.90
47382;DHT22;33128;51.580;5.170;2022-12-07T05:02:20;6.90;99.90
47382;DHT22;33128;51.580;5.170;2022-12-07T05:04:46;7.10;99.90
47382;DHT22;33128;51.580;5.170;2022-12-07T05:07:11;7.10;99.90
47382;DHT22;33128;51.580;5.170;2022-12-07T05:09:46;7.00;99.90
47382;DHT22;33128;51.580;5.170;2022-12-07T05:12:12;6.80;99.90
47382;DHT22;33128;51.580;5.170;2022-12-07T05:14:37;6.80;99.90
47382;DHT22;33128;51.580;5.170;2022-12-07T05:17:15;6.80;99.90
47382;DHT22;33128;51.580;5.170;2022-12-07T05:22:21;6.70;99.90
47382;DHT22;33128;51.580;5.170;2022-12-07T05:24:53;6.70;99.90
47382;DHT22;33128;51.580;5.170;2022-12-07T05:27:28;6.50;99.90
47382;DHT22;33128;51.580;5.170;2022-12-07T05:30:04;6.50;99.90
47382;DHT22;33128;51.580;5.170;2022-12-07T05:32:33;6.40;99.90
47382;DHT22;33128;51.580;5.170;2022-12-07T05:35:01;6.40;99.90
47382;DHT22;33128;51.580;5.170;2022-12-07T05:37:33;6.40;99.90
47382;DHT22;33128;51.580;5.170;2022-12-07T05:40:04;6.30;99.90
47382;DHT22;33128;51.580;5.170;2022-12-07T05:42:36;6.30;99.90
47382;DHT22;33128;51.580;5.170;2022-12-07T05:45:03;6.30;99.90
47382;DHT22;33128;51.580;5.170;2022-12-07T05:47:29;6.30;99.90
47382;DHT22;33128;51.580;5.170;2022-12-07T05:49:54;6.40;99.90
47382;DHT22;33128;51.580;5.170;2022-12-07T05:52:23;6.30;99.90
47382;DHT22;33128;51.580;5.170;2022-12-07T05:54:49;6.20;99.90
47382;DHT22;33128;51.580;5.170;2022-12-07T05:57:14;6.20;99.90
47382;DHT22;33128;51.580;5.170;2022-12-07T05:59:40;6.10;99.90
47382;DHT22;33128;51.580;5.170;2022-12-07T06:02:08;6.40;99.90
47382;DHT22;33128;51.580;5.170;2022-12-07T06:04:37;7.30;99.90
47382;DHT22;33128;51.580;5.170;2022-12-07T06:07:04;8.00;99.90
47382;DHT22;33128;51.580;5.170;2022-12-07T06:09:33;8.40;99.90
47382;DHT22;33128;51.580;5.170;2022-12-07T06:11:59;8.70;99.90
47382;DHT22;33128;51.580;5.170;2022-12-07T06:14:44;9.00;99.90
47382;DHT22;33128;51.580;5.170;2022-12-07T06:17:10;9.10;99.90
47382;DHT22;33128;51.580;5.170;2022-12-07T06:19:36;9.20;99.90
47382;DHT22;33128;51.580;5.170;2022-12-07T06:22:02;9.30;99.90
47382;DHT22;33128;51.580;5.170;2022-12-07T06:24:30;9.40;99.90
47382;DHT22;33128;51.580;5.170;2022-12-07T06:26:56;9.50;99.90
47382;DHT22;33128;51.580;5.170;2022-12-07T06:29:21;9.50;99.90
47382;DHT22;33128;51.580;5.170;2022-12-07T06:31:47;9.60;99.90
47382;DHT22;33128;51.580;5.170;2022-12-07T06:34:16;9.70;99.90
47382;DHT22;33128;51.580;5.170;2022-12-07T06:36:47;9.70;99.90
47382;DHT22;33128;51.580;5.170;2022-12-07T06:39:21;9.70;99.90
47382;DHT22;33128;51.580;5.170;2022-12-07T06:41:47;9.70;99.90
47382;DHT22;33128;51.580;5.170;2022-12-07T06:44:14;9.80;99.90
47382;DHT22;33128;51.580;5.170;2022-12-07T06:46:40;9.70;99.90
47382;DHT22;33128;51.580;5.170;2022-12-07T06:49:11;9.80;99.90
47382;DHT22;33128;51.580;5.170;2022-12-07T06:51:37;9.80;99.90
47382;DHT22;33128;51.580;5.170;2022-12-07T06:54:18;9.80;99.90
47382;DHT22;33128;51.580;5.170;2022-12-07T06:56:44;9.80;99.90
47382;DHT22;33128;51.580;5.170;2022-12-07T06:59:10;9.90;99.90
47382;DHT22;33128;51.580;5.170;2022-12-07T07:01:41;10.00;99.90
47382;DHT22;33128;51.580;5.170;2022-12-07T07:04:10;10.20;99.90
47382;DHT22;33128;51.580;5.170;2022-12-07T07:06:35;10.20;99.90
47382;DHT22;33128;51.580;5.170;2022-12-07T07:09:10;10.00;99.90
47382;DHT22;33128;51.580;5.170;2022-12-07T07:11:49;10.00;99.90
47382;DHT22;33128;51.580;5.170;2022-12-07T07:14:14;10.00;99.90
47382;DHT22;33128;51.580;5.170;2022-12-07T07:16:56;10.00;99.90
47382;DHT22;33128;51.580;5.170;2022-12-07T07:19:22;10.00;99.90
47382;DHT22;33128;51.580;5.170;2022-12-07T07:21:47;10.00;99.90
47382;DHT22;33128;51.580;5.170;2022-12-07T07:24:25;10.00;99.90
47382;DHT22;33128;51.580;5.170;2022-12-07T07:26:51;10.00;99.90
47382;DHT22;33128;51.580;5.170;2022-12-07T07:29:17;10.00;99.90
47382;DHT22;33128;51.580;5.170;2022-12-07T07:31:51;10.10;99.90
47382;DHT22;33128;51.580;5.170;2022-12-07T07:34:17;10.10;99.90
47382;DHT22;33128;51.580;5.170;2022-12-07T07:36:43;10.10;99.90
47382;DHT22;33128;51.580;5.170;2022-12-07T07:39:15;10.10;99.90
47382;DHT22;33128;51.580;5.170;2022-12-07T07:41:40;10.10;99.90
47382;DHT22;33128;51.580;5.170;2022-12-07T07:44:06;10.20;99.90
47382;DHT22;33128;51.580;5.170;2022-12-07T07:46:32;10.20;99.90
47382;DHT22;33128;51.580;5.170;2022-12-07T07:48:58;10.20;99.90
47382;DHT22;33128;51.580;5.170;2022-12-07T07:51:24;10.20;99.90
47382;DHT22;33128;51.580;5.170;2022-12-07T07:53:50;10.30;99.90
47382;DHT22;33128;51.580;5.170;2022-12-07T07:56:15;10.30;99.90
47382;DHT22;33128;51.580;5.170;2022-12-07T07:58:41;9.30;99.90
47382;DHT22;33128;51.580;5.170;2022-12-07T08:01:07;8.40;99.90
47382;DHT22;33128;51.580;5.170;2022-12-07T08:03:33;8.00;99.90
47382;DHT22;33128;51.580;5.170;2022-12-07T08:05:59;7.60;99.90
47382;DHT22;33128;51.580;5.170;2022-12-07T08:08:25;7.40;99.90
47382;DHT22;33128;51.580;5.170;2022-12-07T08:10:50;7.40;99.90
47382;DHT22;33128;51.580;5.170;2022-12-07T08:13:19;7.30;99.90
47382;DHT22;33128;51.580;5.170;2022-12-07T08:15:47;7.30;99.90
47382;DHT22;33128;51.580;5.170;2022-12-07T08:18:14;7.20;99.90
47382;DHT22;33128;51.580;5.170;2022-12-07T08:20:41;7.10;99.90
47382;DHT22;33128;51.580;5.170;2022-12-07T08:23:08;7.20;99.90
47382;DHT22;33128;51.580;5.170;2022-12-07T08:25:34;7.20;99.90
47382;DHT22;33128;51.580;5.170;2022-12-07T08:28:00;7.20;99.90
47382;DHT22;33128;51.580;5.170;2022-12-07T08:30:27;7.20;99.90
47382;DHT22;33128;51.580;5.170;2022-12-07T08:32:52;7.00;99.90
47382;DHT22;33128;51.580;5.170;2022-12-07T08:35:18;7.00;99.90
47382;DHT22;33128;51.580;5.170;2022-12-07T08:37:44;7.20;99.90
47382;DHT22;33128;51.580;5.170;2022-12-07T08:40:10;7.20;99.90
47382;DHT22;33128;51.580;5.170;2022-12-07T08:42:41;7.40;99.90
47382;DHT22;33128;51.580;5.170;2022-12-07T08:45:11;7.50;99.90
47382;DHT22;33128;51.580;5.170;2022-12-07T08:47:41;7.50;99.90
47382;DHT22;33128;51.580;5.170;2022-12-07T08:50:11;7.40;99.90
47382;DHT22;33128;51.580;5.170;2022-12-07T08:52:37;7.40;99.90
47382;DHT22;33128;51.580;5.170;2022-12-07T08:55:04;7.30;99.90
47382;DHT22;33128;51.580;5.170;2022-12-07T08:57:35;7.30;99.90
47382;DHT22;33128;51.580;5.170;2022-12-07T09:00:01;7.30;99.90
47382;DHT22;33128;51.580;5.170;2022-12-07T09:02:27;7.20;99.90
47382;DHT22;33128;51.580;5.170;2022-12-07T09:04:53;7.20;99.90
47382;DHT22;33128;51.580;5.170;2022-12-07T09:07:18;7.50;99.90
47382;DHT22;33128;51.580;5.170;2022-12-07T09:09:44;8.20;99.90
47382;DHT22;33128;51.580;5.170;2022-12-07T09:12:09;8.60;99.90
47382;DHT22;33128;51.580;5.170;2022-12-07T09:14:35;8.90;99.90
47382;DHT22;33128;51.580;5.170;2022-12-07T09:17:11;9.10;99.90
47382;DHT22;33128;51.580;5.170;2022-12-07T09:19:37;9.30;99.90
47382;DHT22;33128;51.580;5.170;2022-12-07T09:22:03;9.40;99.90
47382;DHT22;33128;51.580;5.170;2022-12-07T09:24:30;9.50;99.90
47382;DHT22;33128;51.580;5.170;2022-12-07T09:26:57;9.60;99.90
47382;DHT22;33128;51.580;5.170;2022-12-07T09:29:25;9.70;99.90
47382;DHT22;33128;51.580;5.170;2022-12-07T09:31:54;9.70;99.90
47382;DHT22;33128;51.580;5.170;2022-12-07T09:34:20;9.90;99.90
47382;DHT22;33128;51.580;5.170;2022-12-07T09:36:46;9.90;99.90
47382;DHT22;33128;51.580;5.170;2022-12-07T09:39:12;10.00;99.90
47382;DHT22;33128;51.580;5.170;2022-12-07T09:41:42;10.00;99.90
47382;DHT22;33128;51.580;5.170;2022-12-07T09:44:12;10.00;99.90
47382;DHT22;33128;51.580;5.170;2022-12-07T09:46:40;10.10;99.90
47382;DHT22;33128;51.580;5.170;2022-12-07T09:49:18;10.10;99.90
47382;DHT22;33128;51.580;5.170;2022-12-07T09:51:45;10.10;99.90
47382;DHT22;33128;51.580;5.170;2022-12-07T09:54:15;10.20;99.90
47382;DHT22;33128;51.580;5.170;2022-12-07T09:56:42;10.30;99.90
47382;DHT22;33128;51.580;5.170;2022-12-07T09:59:17;10.20;99.90
47382;DHT22;33128;51.580;5.170;2022-12-07T10:01:46;10.30;99.90
47382;DHT22;33128;51.580;5.170;2022-12-07T10:04:20;10.30;99.90
47382;DHT22;33128;51.580;5.170;2022-12-07T10:06:47;10.40;99.90
47382;DHT22;33128;51.580;5.170;2022-12-07T10:09:15;10.70;99.90
47382;DHT22;33128;51.580;5.170;2022-12-07T10:12:01;11.00;99.90
47382;DHT22;33128;51.580;5.170;2022-12-07T10:14:32;11.10;99.90
47382;DHT22;33128;51.580;5.170;2022-12-07T10:16:58;11.30;99.90
47382;DHT22;33128;51.580;5.170;2022-12-07T10:19:29;11.40;99.90
47382;DHT22;33128;51.580;5.170;2022-12-07T10:22:16;11.30;99.90
47382;DHT22;33128;51.580;5.170;2022-12-07T10:24:43;11.10;99.90
47382;DHT22;33128;51.580;5.170;2022-12-07T10:27:26;11.10;99.90
47382;DHT22;33128;51.580;5.170;2022-12-07T10:29:54;11.10;99.90
47382;DHT22;33128;51.580;5.170;2022-12-07T10:34:45;11.20;99.90
47382;DHT22;33128;51.580;5.170;2022-12-07T10:42:22;11.20;99.90
47382;DHT22;33128;51.580;5.170;2022-12-07T10:44:50;11.20;99.90
47382;DHT22;33128;51.580;5.170;2022-12-07T10:47:47;11.20;99.90
47382;DHT22;33128;51.580;5.170;2022-12-07T10:59:04;11.30;99.90
47382;DHT22;33128;51.580;5.170;2022-12-07T11:07:22;11.50;99.90
47382;DHT22;33128;51.580;5.170;2022-12-07T11:09:58;11.50;99.90
47382;DHT22;33128;51.580;5.170;2022-12-07T11:15:21;11.60;99.90
47382;DHT22;33128;51.580;5.170;2022-12-07T11:18:19;11.60;99.90
47382;DHT22;33128;51.580;5.170;2022-12-07T11:21:00;11.50;99.90
47382;DHT22;33128;51.580;5.170;2022-12-07T11:26:11;11.60;99.90
47382;DHT22;33128;51.580;5.170;2022-12-07T11:29:05;11.60;99.90
47382;DHT22;33128;51.580;5.170;2022-12-07T11:34:21;11.60;99.90
47382;DHT22;33128;51.580;5.170;2022-12-07T11:36:53;11.60;99.90
47382;DHT22;33128;51.580;5.170;2022-12-07T11:39:22;11.60;99.90
47382;DHT22;33128;51.580;5.170;2022-12-07T11:41:55;11.60;99.90
47382;DHT22;33128;51.580;5.170;2022-12-07T11:44:40;11.60;99.90
47382;DHT22;33128;51.580;5.170;2022-12-07T11:53:03;11.80;99.90
47382;DHT22;33128;51.580;5.170;2022-12-07T12:06:34;12.20;99.90
47382;DHT22;33128;51.580;5.170;2022-12-07T12:17:26;12.30;99.90
47382;DHT22;33128;51.580;5.170;2022-12-07T12:20:04;12.30;99.90
47382;DHT22;33128;51.580;5.170;2022-12-07T12:22:40;12.30;99.90
47382;DHT22;33128;51.580;5.170;2022-12-07T12:27:47;12.30;99.90
47382;DHT22;33128;51.580;5.170;2022-12-07T12:30:35;12.30;99.90
47382;DHT22;33128;51.580;5.170;2022-12-07T12:33:13;12.30;99.90
47382;DHT22;33128;51.580;5.170;2022-12-07T12:35:40;12.30;99.90
47382;DHT22;33128;51.580;5.170;2022-12-07T12:40:54;12.30;99.90
47382;DHT22;33128;51.580;5.170;2022-12-07T12:43:42;12.40;99.90
47382;DHT22;33128;51.580;5.170;2022-12-07T12:51:53;12.30;99.90
47382;DHT22;33128;51.580;5.170;2022-12-07T12:54:27;12.30;99.90
47382;DHT22;33128;51.580;5.170;2022-12-07T12:57:23;12.30;99.90
47382;DHT22;33128;51.580;5.170;2022-12-07T13:02:27;12.30;99.90
47382;DHT22;33128;51.580;5.170;2022-12-07T13:15:50;12.50;99.90
47382;DHT22;33128;51.580;5.170;2022-12-07T13:23:30;12.60;99.90
47382;DHT22;33128;51.580;5.170;2022-12-07T13:26:09;12.50;99.90
47382;DHT22;33128;51.580;5.170;2022-12-07T13:28:39;12.50;99.90
47382;DHT22;33128;51.580;5.170;2022-12-07T13:33:43;12.60;99.90
47382;DHT22;33128;51.580;5.170;2022-12-07T13:37:00;12.60;99.90
47382;DHT22;33128;51.580;5.170;2022-12-07T13:39:33;12.60;99.90
47382;DHT22;33128;51.580;5.170;2022-12-07T13:42:08;12.60;99.90
47382;DHT22;33128;51.580;5.170;2022-12-07T13:44:40;12.60;99.90
47382;DHT22;33128;51.580;5.170;2022-12-07T13:49:55;12.60;99.90
47382;DHT22;33128;51.580;5.170;2022-12-07T13:52:30;12.60;99.90
47382;DHT22;33128;51.580;5.170;2022-12-07T13:54:58;12.60;99.90
47382;DHT22;33128;51.580;5.170;2022-12-07T13:57:25;12.60;99.90
47382;DHT22;33128;51.580;5.170;2022-12-07T13:59:52;12.60;99.90
47382;DHT22;33128;51.580;5.170;2022-12-07T14:02:29;12.50;99.90
47382;DHT22;33128;51.580;5.170;2022-12-07T14:07:59;12.50;99.90
47382;DHT22;33128;51.580;5.170;2022-12-07T14:10:31;12.50;99.90
47382;DHT22;33128;51.580;5.170;2022-12-07T14:12:58;12.50;99.90
47382;DHT22;33128;51.580;5.170;2022-12-07T14:15:31;12.50;99.90
47382;DHT22;33128;51.580;5.170;2022-12-07T14:17:58;12.50;99.90
47382;DHT22;33128;51.580;5.170;2022-12-07T14:22:56;12.50;99.90
47382;DHT22;33128;51.580;5.170;2022-12-07T14:25:26;12.50;99.90
47382;DHT22;33128;51.580;5.170;2022-12-07T14:27:57;12.60;99.90
47382;DHT22;33128;51.580;5.170;2022-12-07T14:30:29;12.60;99.90
47382;DHT22;33128;51.580;5.170;2022-12-07T14:32:58;12.60;99.90
47382;DHT22;33128;51.580;5.170;2022-12-07T14:35:26;12.60;99.90
47382;DHT22;33128;51.580;5.170;2022-12-07T14:37:52;12.60;99.90
47382;DHT22;33128;51.580;5.170;2022-12-07T14:40:21;12.60;99.90
47382;DHT22;33128;51.580;5.170;2022-12-07T14:42:49;12.60;99.90
47382;DHT22;33128;51.580;5.170;2022-12-07T14:45:21;12.60;99.90
47382;DHT22;33128;51.580;5.170;2022-12-07T14:47:48;12.60;99.90
47382;DHT22;33128;51.580;5.170;2022-12-07T14:50:16;12.60;99.90
47382;DHT22;33128;51.580;5.170;2022-12-07T14:52:47;12.60;99.90
47382;DHT22;33128;51.580;5.170;2022-12-07T14:55:32;12.60;99.90
47382;DHT22;33128;51.580;5.170;2022-12-07T14:57:58;12.60;99.90
47382;DHT22;33128;51.580;5.170;2022-12-07T15:00:25;12.50;99.90
47382;DHT22;33128;51.580;5.170;2022-12-07T15:02:51;12.50;99.90
47382;DHT22;33128;51.580;5.170;2022-12-07T15:05:17;12.60;99.90
47382;DHT22;33128;51.580;5.170;2022-12-07T15:07:44;12.50;99.90
47382;DHT22;33128;51.580;5.170;2022-12-07T15:10:29;12.50;99.90
47382;DHT22;33128;51.580;5.170;2022-12-07T15:13:01;12.50;99.90
47382;DHT22;33128;51.580;5.170;2022-12-07T15:15:46;12.50;99.90
47382;DHT22;33128;51.580;5.170;2022-12-07T15:18:12;12.50;99.90
47382;DHT22;33128;51.580;5.170;2022-12-07T15:20:37;12.50;99.90
47382;DHT22;33128;51.580;5.170;2022-12-07T15:23:03;12.50;99.90
47382;DHT22;33128;51.580;5.170;2022-12-07T15:25:29;12.60;99.90
47382;DHT22;33128;51.580;5.170;2022-12-07T15:27:54;12.50;99.90
47382;DHT22;33128;51.580;5.170;2022-12-07T15:30:20;12.50;99.90
47382;DHT22;33128;51.580;5.170;2022-12-07T15:32:49;12.50;99.90
47382;DHT22;33128;51.580;5.170;2022-12-07T15:35:15;12.50;99.90
47382;DHT22;33128;51.580;5.170;2022-12-07T15:37:41;12.50;99.90
47382;DHT22;33128;51.580;5.170;2022-12-07T15:40:10;12.50;99.90
47382;DHT22;33128;51.580;5.170;2022-12-07T15:42:37;12.50;99.90
47382;DHT22;33128;51.580;5.170;2022-12-07T15:45:04;12.50;99.90
47382;DHT22;33128;51.580;5.170;2022-12-07T15:47:43;12.50;99.90
47382;DHT22;33128;51.580;5.170;2022-12-07T15:50:14;12.50;99.90
47382;DHT22;33128;51.580;5.170;2022-12-07T15:52:40;12.40;99.90
47382;DHT22;33128;51.580;5.170;2022-12-07T15:55:09;12.50;99.90
47382;DHT22;33128;51.580;5.170;2022-12-07T15:57:39;12.40;99.90
47382;DHT22;33128;51.580;5.170;2022-12-07T16:00:08;12.50;99.90
47382;DHT22;33128;51.580;5.170;2022-12-07T16:02:36;12.50;99.90
47382;DHT22;33128;51.580;5.170;2022-12-07T16:05:02;12.40;99.90
47382;DHT22;33128;51.580;5.170;2022-12-07T16:07:28;12.40;99.90
47382;DHT22;33128;51.580;5.170;2022-12-07T16:09:54;12.40;99.90
47382;DHT22;33128;51.580;5.170;2022-12-07T16:12:25;12.40;99.90
47382;DHT22;33128;51.580;5.170;2022-12-07T16:14:51;12.40;99.90
47382;DHT22;33128;51.580;5.170;2022-12-07T16:17:17;12.40;99.90
47382;DHT22;33128;51.580;5.170;2022-12-07T16:19:42;12.40;99.90
47382;DHT22;33128;51.580;5.170;2022-12-07T16:22:08;12.40;99.90
47382;DHT22;33128;51.580;5.170;2022-12-07T16:24:33;12.40;99.90
47382;DHT22;33128;51.580;5.170;2022-12-07T16:26:59;12.40;99.90
47382;DHT22;33128;51.580;5.170;2022-12-07T16:29:24;12.40;99.90
47382;DHT22;33128;51.580;5.170;2022-12-07T16:31:51;12.40;99.90
47382;DHT22;33128;51.580;5.170;2022-12-07T16:34:17;12.40;99.90
47382;DHT22;33128;51.580;5.170;2022-12-07T16:36:42;12.40;99.90
47382;DHT22;33128;51.580;5.170;2022-12-07T16:39:11;12.40;99.90
47382;DHT22;33128;51.580;5.170;2022-12-07T16:41:37;12.40;99.90
47382;DHT22;33128;51.580;5.170;2022-12-07T16:44:06;12.40;99.90
47382;DHT22;33128;51.580;5.170;2022-12-07T16:46:33;12.40;99.90
47382;DHT22;33128;51.580;5.170;2022-12-07T16:48:59;12.40;99.90
47382;DHT22;33128;51.580;5.170;2022-12-07T16:51:25;12.30;99.90
47382;DHT22;33128;51.580;5.170;2022-12-07T16:53:52;12.40;99.90
47382;DHT22;33128;51.580;5.170;2022-12-07T16:56:19;12.40;99.90
47382;DHT22;33128;51.580;5.170;2022-12-07T16:58:45;12.40;99.90
47382;DHT22;33128;51.580;5.170;2022-12-07T17:01:19;12.40;99.90
47382;DHT22;33128;51.580;5.170;2022-12-07T17:03:45;12.30;99.90
47382;DHT22;33128;51.580;5.170;2022-12-07T17:06:12;12.30;99.90
47382;DHT22;33128;51.580;5.170;2022-12-07T17:08:39;12.30;99.90
47382;DHT22;33128;51.580;5.170;2022-12-07T17:11:22;12.30;99.90
47382;DHT22;33128;51.580;5.170;2022-12-07T17:13:49;12.30;99.90
47382;DHT22;33128;51.580;5.170;2022-12-07T17:16:34;12.30;99.90
47382;DHT22;33128;51.580;5.170;2022-12-07T17:19:03;12.30;99.90
47382;DHT22;33128;51.580;5.170;2022-12-07T17:21:30;12.30;99.90
47382;DHT22;33128;51.580;5.170;2022-12-07T17:23:58;12.30;99.90
47382;DHT22;33128;51.580;5.170;2022-12-07T17:26:25;12.20;99.90
47382;DHT22;33128;51.580;5.170;2022-12-07T17:28:51;12.20;99.90
47382;DHT22;33128;51.580;5.170;2022-12-07T17:31:20;12.20;99.90
47382;DHT22;33128;51.580;5.170;2022-12-07T17:33:46;12.10;99.90
47382;DHT22;33128;51.580;5.170;2022-12-07T17:36:15;12.10;99.90
47382;DHT22;33128;51.580;5.170;2022-12-07T17:38:41;12.10;99.90
47382;DHT22;33128;51.580;5.170;2022-12-07T17:41:18;12.10;99.90
47382;DHT22;33128;51.580;5.170;2022-12-07T17:44:05;12.10;99.90
47382;DHT22;33128;51.580;5.170;2022-12-07T17:46:34;12.00;99.90
47382;DHT22;33128;51.580;5.170;2022-12-07T17:49:00;12.00;99.90
47382;DHT22;33128;51.580;5.170;2022-12-07T17:51:26;12.00;99.90
47382;DHT22;33128;51.580;5.170;2022-12-07T17:54:11;12.00;99.90
47382;DHT22;33128;51.580;5.170;2022-12-07T17:56:37;12.00;99.90
47382;DHT22;33128;51.580;5.170;2022-12-07T17:59:03;12.10;99.90
47382;DHT22;33128;51.580;5.170;2022-12-07T18:01:45;12.20;99.90